sensor_id;sensor_type;location;lat;lon;timestamp;temperature;humidity
32446;DHT22;18899;50.748;7.102;2022-10-17T00:01:41;17.80;99.90
32446;DHT22;18899;50.748;7.102;2022-10-17T00:04:06;17.80;99.90
32446;DHT22;18899;50.748;7.102;2022-10-17T00:06:32;17.80;99.90
32446;DHT22;18899;50.748;7.102;2022-10-17T00:08:57;17.80;99.90
32446;DHT22;18899;50.748;7.102;2022-10-17T00:11:23;17.90;99.90
32446;DHT22;18899;50.748;7.102;2022-10-17T00:13:50;17.90;99.90
32446;DHT22;18899;50.748;7.102;2022-10-17T00:16:30;17.90;99.90
32446;DHT22;18899;50.748;7.102;2022-10-17T00:18:57;18.00;99.90
32446;DHT22;18899;50.748;7.102;2022-10-17T00:21:23;18.00;99.90
32446;DHT22;18899;50.748;7.102;2022-10-17T00:23:48;17.90;99.90
32446;DHT22;18899;50.748;7.102;2022-10-17T00:26:15;18.00;99.90
32446;DHT22;18899;50.748;7.102;2022-10-17T00:28:40;17.90;99.90
32446;DHT22;18899;50.748;7.102;2022-10-17T00:31:06;17.90;99.90
32446;DHT22;18899;50.748;7.102;2022-10-17T00:33:33;17.90;99.90
32446;DHT22;18899;50.748;7.102;2022-10-17T00:36:08;17.90;99.90
32446;DHT22;18899;50.748;7.102;2022-10-17T00:38:34;18.00;99.90
32446;DHT22;18899;50.748;7.102;2022-10-17T00:41:00;18.00;99.90
32446;DHT22;18899;50.748;7.102;2022-10-17T00:43:26;18.00;99.90
32446;DHT22;18899;50.748;7.102;2022-10-17T00:45:52;18.00;99.90
32446;DHT22;18899;50.748;7.102;2022-10-17T00:48:18;17.90;99.90
32446;DHT22;18899;50.748;7.102;2022-10-17T00:50:46;17.90;99.90
32446;DHT22;18899;50.748;7.102;2022-10-17T00:53:13;17.90;99.90
32446;DHT22;18899;50.748;7.102;2022-10-17T00:55:50;17.80;99.90
32446;DHT22;18899;50.748;7.102;2022-10-17T00:58:18;17.80;99.90
32446;DHT22;18899;50.748;7.102;2022-10-17T01:00:45;17.80;99.90
32446;DHT22;18899;50.748;7.102;2022-10-17T01:03:11;17.70;99.90
32446;DHT22;18899;50.748;7.102;2022-10-17T01:05:38;17.70;99.90
32446;DHT22;18899;50.748;7.102;2022-10-17T01:08:04;17.60;99.90
32446;DHT22;18899;50.748;7.102;2022-10-17T01:10:37;17.50;99.90
32446;DHT22;18899;50.748;7.102;2022-10-17T01:13:14;17.50;99.90
32446;DHT22;18899;50.748;7.102;2022-10-17T01:18:39;17.40;99.90
32446;DHT22;18899;50.748;7.102;2022-10-17T01:21:31;17.40;99.90
32446;DHT22;18899;50.748;7.102;2022-10-17T01:24:31;17.40;99.90
32446;DHT22;18899;50.748;7.102;2022-10-17T01:35:59;17.20;99.90
32446;DHT22;18899;50.748;7.102;2022-10-17T01:38:32;17.20;99.90
32446;DHT22;18899;50.748;7.102;2022-10-17T01:41:03;17.20;99.90
32446;DHT22;18899;50.748;7.102;2022-10-17T01:43:36;17.20;99.90
32446;DHT22;18899;50.748;7.102;2022-10-17T01:46:06;17.30;99.90
32446;DHT22;18899;50.748;7.102;2022-10-17T01:48:35;17.30;99.90
32446;DHT22;18899;50.748;7.102;2022-10-17T01:51:11;17.20;99.90
32446;DHT22;18899;50.748;7.102;2022-10-17T01:53:43;17.20;99.90
32446;DHT22;18899;50.748;7.102;2022-10-17T01:56:10;17.30;99.90
32446;DHT22;18899;50.748;7.102;2022-10-17T01:58:42;17.40;99.90
32446;DHT22;18899;50.748;7.102;2022-10-17T02:01:11;17.40;99.90
32446;DHT22;18899;50.748;7.102;2022-10-17T02:03:39;17.40;99.90
32446;DHT22;18899;50.748;7.102;2022-10-17T02:06:06;17.40;99.90
32446;DHT22;18899;50.748;7.102;2022-10-17T02:08:43;17.40;99.90
32446;DHT22;18899;50.748;7.102;2022-10-17T02:11:23;17.40;99.90
32446;DHT22;18899;50.748;7.102;2022-10-17T02:16:28;17.40;99.90
32446;DHT22;18899;50.748;7.102;2022-10-17T02:19:21;17.50;99.90
32446;DHT22;18899;50.748;7.102;2022-10-17T02:25:08;17.60;99.90
32446;DHT22;18899;50.748;7.102;2022-10-17T02:33:11;17.60;99.90
32446;DHT22;18899;50.748;7.102;2022-10-17T02:35:43;17.60;99.90
32446;DHT22;18899;50.748;7.102;2022-10-17T02:38:11;17.60;99.90
32446;DHT22;18899;50.748;7.102;2022-10-17T02:40:38;17.60;99.90
32446;DHT22;18899;50.748;7.102;2022-10-17T02:43:05;17.60;99.90
32446;DHT22;18899;50.748;7.102;2022-10-17T02:45:32;17.70;99.90
32446;DHT22;18899;50.748;7.102;2022-10-17T02:53:43;17.80;99.90
32446;DHT22;18899;50.748;7.102;2022-10-17T02:56:16;17.60;99.90
32446;DHT22;18899;50.748;7.102;2022-10-17T02:58:49;17.60;99.90
32446;DHT22;18899;50.748;7.102;2022-10-17T03:01:16;17.60;99.90
32446;DHT22;18899;50.748;7.102;2022-10-17T03:03:42;17.60;99.90
32446;DHT22;18899;50.748;7.102;2022-10-17T03:06:08;17.70;99.90
32446;DHT22;18899;50.748;7.102;2022-10-17T03:08:33;17.70;99.90
32446;DHT22;18899;50.748;7.102;2022-10-17T03:10:59;17.70;99.90
32446;DHT22;18899;50.748;7.102;2022-10-17T03:13:24;17.70;99.90
32446;DHT22;18899;50.748;7.102;2022-10-17T03:15:50;17.70;99.90
32446;DHT22;18899;50.748;7.102;2022-10-17T03:18:15;17.70;99.90
32446;DHT22;18899;50.748;7.102;2022-10-17T03:20:41;17.70;99.90
32446;DHT22;18899;50.748;7.102;2022-10-17T03:23:06;17.80;99.90
32446;DHT22;18899;50.748;7.102;2022-10-17T03:25:32;17.70;99.90
32446;DHT22;18899;50.748;7.102;2022-10-17T03:27:58;17.80;99.90
32446;DHT22;18899;50.748;7.102;2022-10-17T03:30:24;17.70;99.90
32446;DHT22;18899;50.748;7.102;2022-10-17T03:32:50;17.70;99.90
32446;DHT22;18899;50.748;7.102;2022-10-17T03:35:15;17.60;99.90
32446;DHT22;18899;50.748;7.102;2022-10-17T03:37:41;17.60;99.90
32446;DHT22;18899;50.748;7.102;2022-10-17T03:40:07;17.70;99.90
32446;DHT22;18899;50.748;7.102;2022-10-17T03:42:32;17.60;99.90
32446;DHT22;18899;50.748;7.102;2022-10-17T03:44:58;17.60;99.90
32446;DHT22;18899;50.748;7.102;2022-10-17T03:47:23;17.70;99.90
32446;DHT22;18899;50.748;7.102;2022-10-17T03:49:49;17.70;99.90
32446;DHT22;18899;50.748;7.102;2022-10-17T03:52:15;17.70;99.90
32446;DHT22;18899;50.748;7.102;2022-10-17T03:54:40;17.70;99.90
32446;DHT22;18899;50.748;7.102;2022-10-17T03:57:06;17.70;99.90
32446;DHT22;18899;50.748;7.102;2022-10-17T03:59:31;17.60;99.90
32446;DHT22;18899;50.748;7.102;2022-10-17T04:01:57;17.70;99.90
32446;DHT22;18899;50.748;7.102;2022-10-17T04:04:23;17.60;99.90
32446;DHT22;18899;50.748;7.102;2022-10-17T04:06:48;17.60;99.90
32446;DHT22;18899;50.748;7.102;2022-10-17T04:09:14;17.60;99.90
32446;DHT22;18899;50.748;7.102;2022-10-17T04:11:40;17.70;99.90
32446;DHT22;18899;50.748;7.102;2022-10-17T04:14:05;17.70;99.90
32446;DHT22;18899;50.748;7.102;2022-10-17T04:16:31;17.70;99.90
32446;DHT22;18899;50.748;7.102;2022-10-17T04:18:58;17.60;99.90
32446;DHT22;18899;50.748;7.102;2022-10-17T04:21:25;17.60;99.90
32446;DHT22;18899;50.748;7.102;2022-10-17T04:23:53;17.70;99.90
32446;DHT22;18899;50.748;7.102;2022-10-17T04:26:19;17.70;99.90
32446;DHT22;18899;50.748;7.102;2022-10-17T04:28:44;17.70;99.90
32446;DHT22;18899;50.748;7.102;2022-10-17T04:31:12;17.70;99.90
32446;DHT22;18899;50.748;7.102;2022-10-17T04:33:39;17.80;99.90
32446;DHT22;18899;50.748;7.102;2022-10-17T04:36:09;17.70;99.90
32446;DHT22;18899;50.748;7.102;2022-10-17T04:38:35;17.70;99.90
32446;DHT22;18899;50.748;7.102;2022-10-17T04:41:02;17.70;99.90
32446;DHT22;18899;50.748;7.102;2022-10-17T04:43:33;17.70;99.90
32446;DHT22;18899;50.748;7.102;2022-10-17T04:46:00;17.70;99.90
32446;DHT22;18899;50.748;7.102;2022-10-17T04:48:27;17.70;99.90
32446;DHT22;18899;50.748;7.102;2022-10-17T04:50:57;17.70;99.90
32446;DHT22;18899;50.748;7.102;2022-10-17T04:53:23;17.70;99.90
32446;DHT22;18899;50.748;7.102;2022-10-17T04:55:49;17.70;99.90
32446;DHT22;18899;50.748;7.102;2022-10-17T04:58:15;17.70;99.90
32446;DHT22;18899;50.748;7.102;2022-10-17T05:00:41;17.70;99.90
32446;DHT22;18899;50.748;7.102;2022-10-17T05:03:06;17.60;99.90
32446;DHT22;18899;50.748;7.102;2022-10-17T05:05:32;17.60;99.90
32446;DHT22;18899;50.748;7.102;2022-10-17T05:07:58;17.60;99.90
32446;DHT22;18899;50.748;7.102;2022-10-17T05:10:23;17.50;99.90
32446;DHT22;18899;50.748;7.102;2022-10-17T05:12:49;17.50;99.90
32446;DHT22;18899;50.748;7.102;2022-10-17T05:15:15;17.50;99.90
32446;DHT22;18899;50.748;7.102;2022-10-17T05:17:41;17.50;99.90
32446;DHT22;18899;50.748;7.102;2022-10-17T05:20:07;17.50;99.90
32446;DHT22;18899;50.748;7.102;2022-10-17T05:22:32;17.50;99.90
32446;DHT22;18899;50.748;7.102;2022-10-17T05:24:58;17.40;99.90
32446;DHT22;18899;50.748;7.102;2022-10-17T05:27:24;17.50;99.90
32446;DHT22;18899;50.748;7.102;2022-10-17T05:29:49;17.50;99.90
32446;DHT22;18899;50.748;7.102;2022-10-17T05:32:15;17.50;99.90
32446;DHT22;18899;50.748;7.102;2022-10-17T05:34:40;17.50;99.90
32446;DHT22;18899;50.748;7.102;2022-10-17T05:37:06;17.40;99.90
32446;DHT22;18899;50.748;7.102;2022-10-17T05:39:31;17.30;99.90
32446;DHT22;18899;50.748;7.102;2022-10-17T05:41:57;17.40;99.90
32446;DHT22;18899;50.748;7.102;2022-10-17T05:44:23;17.50;99.90
32446;DHT22;18899;50.748;7.102;2022-10-17T05:46:49;17.50;99.90
32446;DHT22;18899;50.748;7.102;2022-10-17T05:49:15;17.60;99.90
32446;DHT22;18899;50.748;7.102;2022-10-17T05:51:40;17.50;99.90
32446;DHT22;18899;50.748;7.102;2022-10-17T05:54:07;17.60;99.90
32446;DHT22;18899;50.748;7.102;2022-10-17T05:56:33;17.60;99.90
32446;DHT22;18899;50.748;7.102;2022-10-17T05:58:59;17.60;99.90
32446;DHT22;18899;50.748;7.102;2022-10-17T06:01:25;17.60;99.90
32446;DHT22;18899;50.748;7.102;2022-10-17T06:03:50;17.60;99.90
32446;DHT22;18899;50.748;7.102;2022-10-17T06:06:16;17.60;99.90
32446;DHT22;18899;50.748;7.102;2022-10-17T06:08:42;17.60;99.90
32446;DHT22;18899;50.748;7.102;2022-10-17T06:11:08;17.70;99.90
32446;DHT22;18899;50.748;7.102;2022-10-17T06:13:34;17.70;99.90
32446;DHT22;18899;50.748;7.102;2022-10-17T06:15:59;17.80;99.90
32446;DHT22;18899;50.748;7.102;2022-10-17T06:18:25;18.10;99.90
32446;DHT22;18899;50.748;7.102;2022-10-17T06:20:51;18.30;99.90
32446;DHT22;18899;50.748;7.102;2022-10-17T06:23:17;18.40;99.90
32446;DHT22;18899;50.748;7.102;2022-10-17T06:25:43;18.50;99.90
32446;DHT22;18899;50.748;7.102;2022-10-17T06:28:09;18.60;99.90
32446;DHT22;18899;50.748;7.102;2022-10-17T06:30:38;18.60;99.90
32446;DHT22;18899;50.748;7.102;2022-10-17T06:33:03;18.50;99.90
32446;DHT22;18899;50.748;7.102;2022-10-17T06:35:30;18.50;99.90
32446;DHT22;18899;50.748;7.102;2022-10-17T06:37:55;18.60;99.90
32446;DHT22;18899;50.748;7.102;2022-10-17T06:40:21;18.80;99.90
32446;DHT22;18899;50.748;7.102;2022-10-17T06:42:47;19.30;99.90
32446;DHT22;18899;50.748;7.102;2022-10-17T06:45:12;19.80;99.90
32446;DHT22;18899;50.748;7.102;2022-10-17T06:47:38;20.20;99.90
32446;DHT22;18899;50.748;7.102;2022-10-17T06:50:04;20.40;99.90
32446;DHT22;18899;50.748;7.102;2022-10-17T06:52:29;20.60;99.90
32446;DHT22;18899;50.748;7.102;2022-10-17T06:54:55;20.80;99.90
32446;DHT22;18899;50.748;7.102;2022-10-17T06:57:20;21.00;99.90
32446;DHT22;18899;50.748;7.102;2022-10-17T06:59:46;21.00;99.90
32446;DHT22;18899;50.748;7.102;2022-10-17T07:02:11;20.80;99.90
32446;DHT22;18899;50.748;7.102;2022-10-17T07:04:37;20.50;99.90
32446;DHT22;18899;50.748;7.102;2022-10-17T07:07:05;20.50;99.90
32446;DHT22;18899;50.748;7.102;2022-10-17T07:09:32;20.90;99.90
32446;DHT22;18899;50.748;7.102;2022-10-17T07:11:58;21.80;99.90
32446;DHT22;18899;50.748;7.102;2022-10-17T07:14:24;22.60;99.90
32446;DHT22;18899;50.748;7.102;2022-10-17T07:16:57;23.20;99.90
32446;DHT22;18899;50.748;7.102;2022-10-17T07:19:23;23.60;99.90
32446;DHT22;18899;50.748;7.102;2022-10-17T07:21:50;23.90;99.90
32446;DHT22;18899;50.748;7.102;2022-10-17T07:24:15;23.90;99.90
32446;DHT22;18899;50.748;7.102;2022-10-17T07:26:41;23.80;99.90
32446;DHT22;18899;50.748;7.102;2022-10-17T07:29:06;23.50;99.90
32446;DHT22;18899;50.748;7.102;2022-10-17T07:31:32;23.30;99.90
32446;DHT22;18899;50.748;7.102;2022-10-17T07:33:59;22.90;99.90
32446;DHT22;18899;50.748;7.102;2022-10-17T07:36:24;22.50;99.90
32446;DHT22;18899;50.748;7.102;2022-10-17T07:38:50;22.20;99.90
32446;DHT22;18899;50.748;7.102;2022-10-17T07:41:16;22.00;99.90
32446;DHT22;18899;50.748;7.102;2022-10-17T07:43:41;21.70;99.90
32446;DHT22;18899;50.748;7.102;2022-10-17T07:46:07;21.40;99.90
32446;DHT22;18899;50.748;7.102;2022-10-17T07:48:35;21.20;99.90
32446;DHT22;18899;50.748;7.102;2022-10-17T07:51:02;21.20;99.90
32446;DHT22;18899;50.748;7.102;2022-10-17T07:53:28;21.10;99.90
32446;DHT22;18899;50.748;7.102;2022-10-17T07:55:54;21.10;99.90
32446;DHT22;18899;50.748;7.102;2022-10-17T07:58:20;21.10;99.90
32446;DHT22;18899;50.748;7.102;2022-10-17T08:00:45;21.10;99.90
32446;DHT22;18899;50.748;7.102;2022-10-17T08:03:15;21.10;99.90
32446;DHT22;18899;50.748;7.102;2022-10-17T08:05:41;21.10;99.90
32446;DHT22;18899;50.748;7.102;2022-10-17T08:08:06;21.10;99.90
32446;DHT22;18899;50.748;7.102;2022-10-17T08:10:32;21.20;99.90
32446;DHT22;18899;50.748;7.102;2022-10-17T08:12:57;21.20;99.90
32446;DHT22;18899;50.748;7.102;2022-10-17T08:15:24;21.20;99.90
32446;DHT22;18899;50.748;7.102;2022-10-17T08:17:50;21.10;99.90
32446;DHT22;18899;50.748;7.102;2022-10-17T08:20:17;21.20;99.90
32446;DHT22;18899;50.748;7.102;2022-10-17T08:22:50;21.30;99.90
32446;DHT22;18899;50.748;7.102;2022-10-17T08:25:16;21.50;99.90
32446;DHT22;18899;50.748;7.102;2022-10-17T08:27:42;21.50;99.90
32446;DHT22;18899;50.748;7.102;2022-10-17T08:30:08;21.40;99.90
32446;DHT22;18899;50.748;7.102;2022-10-17T08:32:33;21.50;99.90
32446;DHT22;18899;50.748;7.102;2022-10-17T08:34:59;21.60;99.90
32446;DHT22;18899;50.748;7.102;2022-10-17T08:37:25;21.60;99.90
32446;DHT22;18899;50.748;7.102;2022-10-17T08:39:50;21.60;99.90
32446;DHT22;18899;50.748;7.102;2022-10-17T08:45:17;21.60;99.90
32446;DHT22;18899;50.748;7.102;2022-10-17T08:47:47;21.70;99.90
32446;DHT22;18899;50.748;7.102;2022-10-17T08:50:41;21.60;99.90
32446;DHT22;18899;50.748;7.102;2022-10-17T08:55:48;21.60;99.90
32446;DHT22;18899;50.748;7.102;2022-10-17T08:58:20;21.70;99.90
32446;DHT22;18899;50.748;7.102;2022-10-17T09:00:56;21.70;99.90
32446;DHT22;18899;50.748;7.102;2022-10-17T09:06:56;21.50;99.90
32446;DHT22;18899;50.748;7.102;2022-10-17T09:15:09;21.60;99.90
32446;DHT22;18899;50.748;7.102;2022-10-17T09:17:52;21.60;99.90
32446;DHT22;18899;50.748;7.102;2022-10-17T09:20:29;21.70;99.90
32446;DHT22;18899;50.748;7.102;2022-10-17T09:23:03;22.20;99.90
32446;DHT22;18899;50.748;7.102;2022-10-17T09:25:33;22.90;99.90
32446;DHT22;18899;50.748;7.102;2022-10-17T09:28:24;23.50;99.90
32446;DHT22;18899;50.748;7.102;2022-10-17T09:33:26;24.30;99.90
32446;DHT22;18899;50.748;7.102;2022-10-17T09:35:53;25.20;99.90
32446;DHT22;18899;50.748;7.102;2022-10-17T09:38:21;25.90;99.90
32446;DHT22;18899;50.748;7.102;2022-10-17T09:40:55;25.80;99.90
32446;DHT22;18899;50.748;7.102;2022-10-17T09:43:21;25.40;99.90
32446;DHT22;18899;50.748;7.102;2022-10-17T09:46:07;24.80;99.90
32446;DHT22;18899;50.748;7.102;2022-10-17T09:48:50;24.60;99.90
32446;DHT22;18899;50.748;7.102;2022-10-17T09:51:18;24.00;99.90
32446;DHT22;18899;50.748;7.102;2022-10-17T09:53:53;23.80;99.90
32446;DHT22;18899;50.748;7.102;2022-10-17T09:56:19;23.60;99.90
32446;DHT22;18899;50.748;7.102;2022-10-17T09:58:50;23.60;99.90
32446;DHT22;18899;50.748;7.102;2022-10-17T10:01:20;23.50;99.90
32446;DHT22;18899;50.748;7.102;2022-10-17T10:03:46;23.40;99.90
32446;DHT22;18899;50.748;7.102;2022-10-17T10:06:17;23.40;99.90
32446;DHT22;18899;50.748;7.102;2022-10-17T10:08:56;23.30;99.90
32446;DHT22;18899;50.748;7.102;2022-10-17T10:11:55;23.20;99.90
32446;DHT22;18899;50.748;7.102;2022-10-17T10:16:50;23.80;99.90
32446;DHT22;18899;50.748;7.102;2022-10-17T10:19:37;24.10;99.90
32446;DHT22;18899;50.748;7.102;2022-10-17T10:22:14;24.40;99.90
32446;DHT22;18899;50.748;7.102;2022-10-17T10:24:41;24.40;99.90
32446;DHT22;18899;50.748;7.102;2022-10-17T10:27:13;24.50;99.90
32446;DHT22;18899;50.748;7.102;2022-10-17T10:32:08;24.60;99.90
32446;DHT22;18899;50.748;7.102;2022-10-17T10:34:40;24.50;99.90
32446;DHT22;18899;50.748;7.102;2022-10-17T10:37:24;24.50;99.90
32446;DHT22;18899;50.748;7.102;2022-10-17T10:39:57;24.60;99.90
32446;DHT22;18899;50.748;7.102;2022-10-17T10:44:52;24.70;99.90
32446;DHT22;18899;50.748;7.102;2022-10-17T10:47:24;24.50;99.90
32446;DHT22;18899;50.748;7.102;2022-10-17T10:50:05;24.50;99.90
32446;DHT22;18899;50.748;7.102;2022-10-17T10:55:29;24.30;99.90
32446;DHT22;18899;50.748;7.102;2022-10-17T10:58:00;24.60;99.90
32446;DHT22;18899;50.748;7.102;2022-10-17T11:00:30;24.90;99.90
32446;DHT22;18899;50.748;7.102;2022-10-17T11:03:09;25.10;99.90
32446;DHT22;18899;50.748;7.102;2022-10-17T11:08:12;25.20;99.90
32446;DHT22;18899;50.748;7.102;2022-10-17T11:13:26;25.30;99.90
32446;DHT22;18899;50.748;7.102;2022-10-17T11:16:13;25.30;99.90
32446;DHT22;18899;50.748;7.102;2022-10-17T11:18:44;25.30;99.90
32446;DHT22;18899;50.748;7.102;2022-10-17T11:21:33;25.20;99.90
32446;DHT22;18899;50.748;7.102;2022-10-17T11:24:26;25.10;99.90
32446;DHT22;18899;50.748;7.102;2022-10-17T11:27:25;24.90;99.90
32446;DHT22;18899;50.748;7.102;2022-10-17T11:29:44;24.80;99.90
32446;DHT22;18899;50.748;7.102;2022-10-17T11:32:15;25.00;99.90
32446;DHT22;18899;50.748;7.102;2022-10-17T11:34:46;24.90;99.90
32446;DHT22;18899;50.748;7.102;2022-10-17T11:37:19;24.90;99.90
32446;DHT22;18899;50.748;7.102;2022-10-17T11:39:59;24.90;99.90
32446;DHT22;18899;50.748;7.102;2022-10-17T11:44:57;24.80;99.90
32446;DHT22;18899;50.748;7.102;2022-10-17T11:47:47;24.70;99.90
32446;DHT22;18899;50.748;7.102;2022-10-17T11:53:16;24.20;99.90
32446;DHT22;18899;50.748;7.102;2022-10-17T11:55:43;24.10;99.90
32446;DHT22;18899;50.748;7.102;2022-10-17T12:01:22;24.10;99.90
32446;DHT22;18899;50.748;7.102;2022-10-17T12:12:33;24.10;99.90
32446;DHT22;18899;50.748;7.102;2022-10-17T12:17:44;24.00;99.90
32446;DHT22;18899;50.748;7.102;2022-10-17T12:25:32;24.00;99.90
32446;DHT22;18899;50.748;7.102;2022-10-17T12:30:27;23.80;99.90
32446;DHT22;18899;50.748;7.102;2022-10-17T12:35:37;23.90;99.90
32446;DHT22;18899;50.748;7.102;2022-10-17T12:38:23;23.90;99.90
32446;DHT22;18899;50.748;7.102;2022-10-17T12:40:52;23.90;99.90
32446;DHT22;18899;50.748;7.102;2022-10-17T12:45:53;24.00;99.90
32446;DHT22;18899;50.748;7.102;2022-10-17T12:51:13;24.10;99.90
32446;DHT22;18899;50.748;7.102;2022-10-17T12:56:12;24.10;99.90
32446;DHT22;18899;50.748;7.102;2022-10-17T12:58:43;24.00;99.90
32446;DHT22;18899;50.748;7.102;2022-10-17T13:01:17;23.90;99.90
32446;DHT22;18899;50.748;7.102;2022-10-17T13:03:47;23.70;99.90
32446;DHT22;18899;50.748;7.102;2022-10-17T13:06:23;23.50;99.90
32446;DHT22;18899;50.748;7.102;2022-10-17T13:08:57;23.50;99.90
32446;DHT22;18899;50.748;7.102;2022-10-17T13:11:24;23.40;99.90
32446;DHT22;18899;50.748;7.102;2022-10-17T13:13:52;23.50;99.90
32446;DHT22;18899;50.748;7.102;2022-10-17T13:16:39;23.60;99.90
32446;DHT22;18899;50.748;7.102;2022-10-17T13:19:15;23.40;99.90
32446;DHT22;18899;50.748;7.102;2022-10-17T13:21:51;23.40;99.90
32446;DHT22;18899;50.748;7.102;2022-10-17T13:24:22;23.30;99.90
32446;DHT22;18899;50.748;7.102;2022-10-17T13:26:51;23.20;99.90
32446;DHT22;18899;50.748;7.102;2022-10-17T13:29:17;23.10;99.90
32446;DHT22;18899;50.748;7.102;2022-10-17T13:31:51;23.00;99.90
32446;DHT22;18899;50.748;7.102;2022-10-17T13:34:20;23.00;99.90
32446;DHT22;18899;50.748;7.102;2022-10-17T13:36:48;22.90;99.90
32446;DHT22;18899;50.748;7.102;2022-10-17T13:39:18;22.80;99.90
32446;DHT22;18899;50.748;7.102;2022-10-17T13:41:44;22.90;99.90
32446;DHT22;18899;50.748;7.102;2022-10-17T13:44:20;22.80;99.90
32446;DHT22;18899;50.748;7.102;2022-10-17T13:46:47;22.80;99.90
32446;DHT22;18899;50.748;7.102;2022-10-17T13:49:27;22.70;99.90
32446;DHT22;18899;50.748;7.102;2022-10-17T13:51:57;22.70;99.90
32446;DHT22;18899;50.748;7.102;2022-10-17T13:54:38;22.80;99.90
32446;DHT22;18899;50.748;7.102;2022-10-17T13:57:38;22.90;99.90
32446;DHT22;18899;50.748;7.102;2022-10-17T14:00:17;22.80;99.90
32446;DHT22;18899;50.748;7.102;2022-10-17T14:02:43;22.70;99.90
32446;DHT22;18899;50.748;7.102;2022-10-17T14:05:13;22.60;99.90
32446;DHT22;18899;50.748;7.102;2022-10-17T14:07:51;22.70;99.90
32446;DHT22;18899;50.748;7.102;2022-10-17T14:10:29;22.60;99.90
32446;DHT22;18899;50.748;7.102;2022-10-17T14:12:56;22.60;99.90
32446;DHT22;18899;50.748;7.102;2022-10-17T14:15:27;22.60;99.90
32446;DHT22;18899;50.748;7.102;2022-10-17T14:17:54;22.60;99.90
32446;DHT22;18899;50.748;7.102;2022-10-17T14:20:21;22.60;99.90
32446;DHT22;18899;50.748;7.102;2022-10-17T14:22:48;22.60;99.90
32446;DHT22;18899;50.748;7.102;2022-10-17T14:30:48;22.70;99.90
32446;DHT22;18899;50.748;7.102;2022-10-17T14:33:26;22.80;99.90
32446;DHT22;18899;50.748;7.102;2022-10-17T14:35:54;22.80;99.90
32446;DHT22;18899;50.748;7.102;2022-10-17T14:38:20;22.90;99.90
32446;DHT22;18899;50.748;7.102;2022-10-17T14:41:02;22.90;99.90
32446;DHT22;18899;50.748;7.102;2022-10-17T14:43:30;22.90;99.90
32446;DHT22;18899;50.748;7.102;2022-10-17T14:45:59;22.90;99.90
32446;DHT22;18899;50.748;7.102;2022-10-17T14:48:27;23.00;99.90
32446;DHT22;18899;50.748;7.102;2022-10-17T14:51:13;22.90;99.90
32446;DHT22;18899;50.748;7.102;2022-10-17T14:53:43;22.90;99.90
32446;DHT22;18899;50.748;7.102;2022-10-17T14:56:24;22.90;99.90
32446;DHT22;18899;50.748;7.102;2022-10-17T14:58:50;22.90;99.90
32446;DHT22;18899;50.748;7.102;2022-10-17T15:01:16;22.80;99.90
32446;DHT22;18899;50.748;7.102;2022-10-17T15:03:42;22.70;99.90
32446;DHT22;18899;50.748;7.102;2022-10-17T15:06:22;22.60;99.90
32446;DHT22;18899;50.748;7.102;2022-10-17T15:08:49;22.60;99.90
32446;DHT22;18899;50.748;7.102;2022-10-17T15:11:15;22.50;99.90
32446;DHT22;18899;50.748;7.102;2022-10-17T15:13:42;22.40;99.90
32446;DHT22;18899;50.748;7.102;2022-10-17T15:16:25;22.40;99.90
32446;DHT22;18899;50.748;7.102;2022-10-17T15:18:52;22.30;99.90
32446;DHT22;18899;50.748;7.102;2022-10-17T15:21:20;22.30;99.90
32446;DHT22;18899;50.748;7.102;2022-10-17T15:23:48;22.30;99.90
32446;DHT22;18899;50.748;7.102;2022-10-17T15:26:16;22.30;99.90
32446;DHT22;18899;50.748;7.102;2022-10-17T15:28:42;22.20;99.90
32446;DHT22;18899;50.748;7.102;2022-10-17T15:31:10;22.20;99.90
32446;DHT22;18899;50.748;7.102;2022-10-17T15:33:36;22.20;99.90
32446;DHT22;18899;50.748;7.102;2022-10-17T15:36:02;22.20;99.90
32446;DHT22;18899;50.748;7.102;2022-10-17T15:38:28;22.10;99.90
32446;DHT22;18899;50.748;7.102;2022-10-17T15:40:53;22.00;99.90
32446;DHT22;18899;50.748;7.102;2022-10-17T15:43:20;22.00;99.90
32446;DHT22;18899;50.748;7.102;2022-10-17T15:45:46;22.00;99.90
32446;DHT22;18899;50.748;7.102;2022-10-17T15:48:24;22.00;99.90
32446;DHT22;18899;50.748;7.102;2022-10-17T15:50:52;22.10;99.90
32446;DHT22;18899;50.748;7.102;2022-10-17T15:53:18;22.00;99.90
32446;DHT22;18899;50.748;7.102;2022-10-17T15:55:44;21.80;99.90
32446;DHT22;18899;50.748;7.102;2022-10-17T15:58:14;21.70;99.90
32446;DHT22;18899;50.748;7.102;2022-10-17T16:00:40;21.60;99.90
32446;DHT22;18899;50.748;7.102;2022-10-17T16:03:06;21.60;99.90
32446;DHT22;18899;50.748;7.102;2022-10-17T16:05:31;21.60;99.90
32446;DHT22;18899;50.748;7.102;2022-10-17T16:07:58;21.50;99.90
32446;DHT22;18899;50.748;7.102;2022-10-17T16:10:24;21.40;99.90
32446;DHT22;18899;50.748;7.102;2022-10-17T16:12:50;21.40;99.90
32446;DHT22;18899;50.748;7.102;2022-10-17T16:15:19;21.40;99.90
32446;DHT22;18899;50.748;7.102;2022-10-17T16:17:46;21.30;99.90
32446;DHT22;18899;50.748;7.102;2022-10-17T16:20:13;21.30;99.90
32446;DHT22;18899;50.748;7.102;2022-10-17T16:22:42;21.20;99.90
32446;DHT22;18899;50.748;7.102;2022-10-17T16:25:25;21.10;99.90
32446;DHT22;18899;50.748;7.102;2022-10-17T16:27:53;21.10;99.90
32446;DHT22;18899;50.748;7.102;2022-10-17T16:30:20;21.10;99.90
32446;DHT22;18899;50.748;7.102;2022-10-17T16:32:46;21.00;99.90
32446;DHT22;18899;50.748;7.102;2022-10-17T16:35:26;21.00;99.90
32446;DHT22;18899;50.748;7.102;2022-10-17T16:37:52;20.90;99.90
32446;DHT22;18899;50.748;7.102;2022-10-17T16:40:18;20.90;99.90
32446;DHT22;18899;50.748;7.102;2022-10-17T16:42:44;20.90;99.90
32446;DHT22;18899;50.748;7.102;2022-10-17T16:45:19;20.90;99.90
32446;DHT22;18899;50.748;7.102;2022-10-17T16:47:46;20.90;99.90
32446;DHT22;18899;50.748;7.102;2022-10-17T16:50:12;20.80;99.90
32446;DHT22;18899;50.748;7.102;2022-10-17T16:52:39;20.80;99.90
32446;DHT22;18899;50.748;7.102;2022-10-17T16:55:05;20.70;99.90
32446;DHT22;18899;50.748;7.102;2022-10-17T16:57:31;20.70;99.90
32446;DHT22;18899;50.748;7.102;2022-10-17T16:59:56;20.80;99.90
32446;DHT22;18899;50.748;7.102;2022-10-17T17:02:22;20.70;99.90
32446;DHT22;18899;50.748;7.102;2022-10-17T17:04:47;20.70;99.90
32446;DHT22;18899;50.748;7.102;2022-10-17T17:07:13;20.60;99.90
32446;DHT22;18899;50.748;7.102;2022-10-17T17:09:38;20.60;99.90
32446;DHT22;18899;50.748;7.102;2022-10-17T17:12:04;20.60;99.90
32446;DHT22;18899;50.748;7.102;2022-10-17T17:14:30;20.70;99.90
32446;DHT22;18899;50.748;7.102;2022-10-17T17:16:56;20.70;99.90
32446;DHT22;18899;50.748;7.102;2022-10-17T17:19:21;20.80;99.90
32446;DHT22;18899;50.748;7.102;2022-10-17T17:21:47;20.80;99.90
32446;DHT22;18899;50.748;7.102;2022-10-17T17:24:16;20.80;99.90
32446;DHT22;18899;50.748;7.102;2022-10-17T17:26:41;20.90;99.90
32446;DHT22;18899;50.748;7.102;2022-10-17T17:29:08;20.80;99.90